Time;durP1;ratioP1;P1;durP2;ratioP2;P2;SDS_P1;SDS_P2;PMS_P1;PMS_P2;Temp;Humidity;BMP_temperature;BMP_pressure;BME280_temperature;BME280_humidity;BME280_pressure;Samples;Min_cycle;Max_cycle;Signal;HPM_P1;HPM_P2
2023/01/06 00:00:00;;;;;;;7.30;5.80;;;;;;;;;;5038534;28;20462;-71
2023/01/06 00:02:50;;;;;;;11.90;5.50;;;;;;;;;;5037410;28;20462;-71
2023/01/06 00:05:46;;;;;;;8.87;6.00;;;;;;;;;;5042070;28;20480;-71
2023/01/06 00:08:36;;;;;;;15.40;7.80;;;;;;;;;;5040120;28;20467;-71
2023/01/06 00:11:25;;;;;;;9.80;6.50;;;;;;;;;;5038963;28;20471;-71
2023/01/06 00:14:22;;;;;;;9.00;6.30;;;;;;;;;;5037184;28;20537;-71
2023/01/06 00:17:12;;;;;;;9.60;6.97;;;;;;;;;;5038139;28;20485;-72
2023/01/06 00:20:07;;;;;;;11.07;7.10;;;;;;;;;;5037113;28;20470;-72
2023/01/06 00:22:57;;;;;;;12.17;7.40;;;;;;;;;;5039242;28;21015;-71
2023/01/06 00:25:51;;;;;;;8.33;6.80;;;;;;;;;;5039018;28;20478;-71
2023/01/06 00:28:40;;;;;;;9.93;6.83;;;;;;;;;;5040175;28;21038;-71
2023/01/06 00:31:28;;;;;;;11.03;7.37;;;;;;;;;;5039533;28;20479;-71
2023/01/06 00:34:20;;;;;;;12.23;8.17;;;;;;;;;;5039490;28;20456;-71
2023/01/06 00:37:08;;;;;;;9.87;7.80;;;;;;;;;;5039038;28;20458;-72
2023/01/06 00:40:00;;;;;;;11.90;8.57;;;;;;;;;;5037803;28;20459;-71
2023/01/06 00:42:50;;;;;;;12.50;8.60;;;;;;;;;;5036949;28;20479;-71
2023/01/06 00:45:41;;;;;;;13.50;9.57;;;;;;;;;;5040442;28;20471;-71
2023/01/06 00:48:30;;;;;;;15.83;9.63;;;;;;;;;;5040661;28;21112;-71
2023/01/06 00:51:18;;;;;;;11.47;9.53;;;;;;;;;;5040060;28;20494;-72
2023/01/06 00:54:09;;;;;;;12.60;9.23;;;;;;;;;;5036177;28;20455;-71
2023/01/06 00:57:01;;;;;;;12.37;9.70;;;;;;;;;;5035602;28;20489;-71
2023/01/06 00:59:49;;;;;;;13.40;10.53;;;;;;;;;;5039394;28;20529;-71
2023/01/06 01:02:39;;;;;;;16.83;10.00;;;;;;;;;;5034724;28;20480;-71
2023/01/06 01:05:31;;;;;;;14.07;10.57;;;;;;;;;;5037272;28;20566;-71
2023/01/06 01:08:19;;;;;;;13.77;11.80;;;;;;;;;;5037052;28;20467;-71
2023/01/06 01:11:09;;;;;;;12.77;11.33;;;;;;;;;;5039147;28;20471;-71
2023/01/06 01:13:59;;;;;;;15.47;11.27;;;;;;;;;;5038531;28;20460;-71
2023/01/06 01:16:53;;;;;;;17.00;11.80;;;;;;;;;;5038347;28;20492;-71
2023/01/06 01:19:45;;;;;;;13.30;11.10;;;;;;;;;;5041440;28;20456;-71
2023/01/06 01:22:35;;;;;;;13.93;11.10;;;;;;;;;;5036887;28;20871;-71
2023/01/06 01:25:24;;;;;;;15.47;11.03;;;;;;;;;;5036720;28;21050;-71
2023/01/06 01:28:15;;;;;;;14.30;10.53;;;;;;;;;;5041159;28;20476;-71
2023/01/06 01:31:08;;;;;;;11.83;10.20;;;;;;;;;;5038152;28;20475;-71
2023/01/06 01:33:57;;;;;;;13.20;9.80;;;;;;;;;;5040678;28;20450;-71
2023/01/06 01:36:49;;;;;;;15.40;9.60;;;;;;;;;;5037714;28;20476;-71
2023/01/06 01:39:45;;;;;;;12.90;9.80;;;;;;;;;;5036364;28;20467;-71
2023/01/06 01:42:34;;;;;;;13.97;10.70;;;;;;;;;;5037671;28;21100;-72
2023/01/06 01:45:29;;;;;;;13.00;9.60;;;;;;;;;;5035573;28;20491;-72
2023/01/06 01:48:28;;;;;;;11.57;9.33;;;;;;;;;;5036389;28;20479;-71
2023/01/06 01:51:19;;;;;;;11.60;9.90;;;;;;;;;;5038111;28;20475;-71
2023/01/06 01:54:09;;;;;;;12.87;9.93;;;;;;;;;;5034785;28;20462;-71
2023/01/06 01:57:02;;;;;;;13.43;9.67;;;;;;;;;;5036394;28;20482;-71
2023/01/06 01:59:52;;;;;;;11.90;9.17;;;;;;;;;;5036898;28;20459;-71
2023/01/06 02:02:41;;;;;;;12.10;9.60;;;;;;;;;;5035547;28;21097;-71
2023/01/06 02:05:32;;;;;;;14.67;9.70;;;;;;;;;;5033334;28;20475;-72
2023/01/06 02:08:24;;;;;;;12.67;8.87;;;;;;;;;;5030782;28;20470;-71
2023/01/06 02:11:12;;;;;;;13.13;8.63;;;;;;;;;;5033493;28;20494;-72
2023/01/06 02:14:04;;;;;;;11.10;9.13;;;;;;;;;;5033052;28;20449;-71
2023/01/06 02:17:03;;;;;;;10.63;8.50;;;;;;;;;;5031027;28;20991;-71
2023/01/06 02:20:12;;;;;;;13.33;8.30;;;;;;;;;;5037720;28;20600;-71
2023/01/06 02:23:26;;;;;;;11.00;9.13;;;;;;;;;;5032995;28;20485;-71
2023/01/06 02:26:35;;;;;;;9.53;8.23;;;;;;;;;;5036684;28;20486;-71
2023/01/06 02:29:39;;;;;;;9.40;7.73;;;;;;;;;;5039559;28;20447;-71
2023/01/06 02:32:36;;;;;;;11.03;8.23;;;;;;;;;;5035577;28;20485;-72
2023/01/06 02:35:36;;;;;;;10.07;7.90;;;;;;;;;;5035913;28;20449;-71
2023/01/06 02:38:36;;;;;;;8.63;7.70;;;;;;;;;;5035941;28;20511;-72
2023/01/06 02:41:32;;;;;;;11.77;8.60;;;;;;;;;;5040968;28;20471;-72
2023/01/06 02:44:29;;;;;;;9.93;7.90;;;;;;;;;;5037743;28;20447;-72
2023/01/06 02:47:23;;;;;;;9.17;7.77;;;;;;;;;;5037248;28;21085;-71
2023/01/06 02:50:18;;;;;;;9.00;8.00;;;;;;;;;;5031967;28;20478;-71
2023/01/06 02:53:11;;;;;;;8.20;7.40;;;;;;;;;;5035969;28;20993;-71
2023/01/06 02:56:00;;;;;;;9.23;8.20;;;;;;;;;;5038185;28;20535;-71
2023/01/06 02:58:51;;;;;;;8.47;7.63;;;;;;;;;;5033793;28;20492;-71
2023/01/06 03:01:53;;;;;;;9.50;7.63;;;;;;;;;;5035326;28;20483;-71
2023/01/06 03:04:49;;;;;;;10.77;8.47;;;;;;;;;;5037569;28;20485;-72
2023/01/06 03:07:47;;;;;;;8.20;7.03;;;;;;;;;;5036806;28;21051;-71
2023/01/06 03:10:39;;;;;;;13.50;8.90;;;;;;;;;;5034351;28;20478;-72
2023/01/06 03:13:30;;;;;;;10.50;8.77;;;;;;;;;;5034947;28;20467;-72
2023/01/06 03:16:21;;;;;;;11.97;9.00;;;;;;;;;;5028870;28;20466;-71
2023/01/06 03:19:12;;;;;;;11.10;8.90;;;;;;;;;;5037011;28;20454;-71
2023/01/06 03:22:01;;;;;;;12.70;9.30;;;;;;;;;;5037424;28;20508;-71
2023/01/06 03:24:52;;;;;;;10.30;9.20;;;;;;;;;;5036062;28;20929;-72
2023/01/06 03:27:41;;;;;;;12.10;9.67;;;;;;;;;;5032721;28;21358;-72
2023/01/06 03:30:36;;;;;;;12.73;10.33;;;;;;;;;;5034048;28;20479;-72
2023/01/06 03:33:28;;;;;;;10.43;9.37;;;;;;;;;;5041074;28;20840;-71
2023/01/06 03:36:25;;;;;;;14.33;9.87;;;;;;;;;;5036497;28;20459;-72
2023/01/06 03:39:15;;;;;;;12.13;9.03;;;;;;;;;;5037941;28;22058;-72
2023/01/06 03:45:37;;;;;;;13.80;10.83;;;;;;;;;;5039116;28;20570;-72
2023/01/06 03:48:31;;;;;;;11.47;9.63;;;;;;;;;;5040570;28;20486;-72
2023/01/06 03:51:30;;;;;;;12.90;10.47;;;;;;;;;;5039222;28;21470;-72
2023/01/06 03:54:23;;;;;;;15.37;10.80;;;;;;;;;;5036850;28;20478;-72
2023/01/06 03:57:17;;;;;;;13.20;10.20;;;;;;;;;;5040537;28;20554;-72
2023/01/06 04:00:11;;;;;;;13.13;10.93;;;;;;;;;;5036003;28;20465;-71
2023/01/06 04:02:59;;;;;;;14.43;11.27;;;;;;;;;;5039644;28;20459;-72
2023/01/06 04:05:54;;;;;;;14.33;11.40;;;;;;;;;;5039411;28;21239;-72
2023/01/06 04:08:43;;;;;;;16.27;12.10;;;;;;;;;;5038567;28;20475;-72
2023/01/06 04:14:41;;;;;;;14.43;11.40;;;;;;;;;;5040263;28;20466;-72
2023/01/06 04:17:32;;;;;;;15.70;11.30;;;;;;;;;;5036854;28;20490;-72
2023/01/06 04:20:21;;;;;;;16.13;12.50;;;;;;;;;;5037943;28;20489;-72
2023/01/06 04:23:17;;;;;;;14.93;12.60;;;;;;;;;;5039894;28;20460;-72
2023/01/06 04:26:14;;;;;;;18.03;11.87;;;;;;;;;;5039607;28;20456;-72
2023/01/06 04:29:03;;;;;;;20.07;11.97;;;;;;;;;;5037333;28;20451;-71
2023/01/06 04:31:53;;;;;;;19.50;13.70;;;;;;;;;;5037216;28;20475;-71
2023/01/06 04:34:41;;;;;;;13.53;11.30;;;;;;;;;;5038173;28;20513;-72
2023/01/06 04:37:31;;;;;;;17.90;12.90;;;;;;;;;;5032517;28;20482;-71
2023/01/06 04:40:23;;;;;;;16.33;11.80;;;;;;;;;;5033121;28;20467;-72
2023/01/06 04:43:15;;;;;;;18.23;11.70;;;;;;;;;;5036407;28;20452;-72
2023/01/06 04:46:06;;;;;;;18.37;13.37;;;;;;;;;;5038993;28;20457;-71
2023/01/06 04:48:57;;;;;;;15.00;11.83;;;;;;;;;;5037151;28;20522;-71
2023/01/06 04:51:49;;;;;;;19.77;12.50;;;;;;;;;;5035744;28;21262;-72
2023/01/06 04:54:37;;;;;;;21.50;12.77;;;;;;;;;;5039642;28;20463;-72
2023/01/06 04:57:29;;;;;;;17.93;11.80;;;;;;;;;;5037286;28;20609;-72
2023/01/06 05:00:18;;;;;;;21.20;13.10;;;;;;;;;;5036561;28;20964;-72
2023/01/06 05:03:14;;;;;;;20.60;13.73;;;;;;;;;;5039135;28;20463;-72
2023/01/06 05:06:09;;;;;;;22.53;14.30;;;;;;;;;;5038597;28;20455;-72
2023/01/06 05:08:57;;;;;;;19.70;13.73;;;;;;;;;;5036557;28;20510;-72
2023/01/06 05:11:47;;;;;;;24.30;14.40;;;;;;;;;;5034623;28;20482;-72
2023/01/06 05:14:38;;;;;;;22.10;14.40;;;;;;;;;;5039319;28;21037;-71
2023/01/06 05:17:30;;;;;;;20.67;14.37;;;;;;;;;;5039103;28;20488;-72
2023/01/06 05:20:24;;;;;;;19.83;14.30;;;;;;;;;;5037830;28;20485;-72
2023/01/06 05:23:20;;;;;;;22.53;13.97;;;;;;;;;;5039753;28;20456;-72
2023/01/06 05:26:16;;;;;;;20.10;14.80;;;;;;;;;;5038801;28;21001;-72
2023/01/06 05:29:06;;;;;;;22.60;13.67;;;;;;;;;;5040102;28;20458;-72
2023/01/06 05:31:58;;;;;;;23.47;14.47;;;;;;;;;;5036888;28;20476;-72
2023/01/06 05:34:46;;;;;;;18.93;12.03;;;;;;;;;;5037841;28;20971;-72
2023/01/06 05:37:37;;;;;;;19.53;13.77;;;;;;;;;;5035940;28;20475;-71
2023/01/06 05:40:30;;;;;;;19.93;13.60;;;;;;;;;;5032146;28;20479;-72
2023/01/06 05:43:21;;;;;;;19.07;13.03;;;;;;;;;;5032233;28;20461;-72
2023/01/06 05:46:19;;;;;;;18.60;14.20;;;;;;;;;;5037491;28;21421;-72
2023/01/06 05:49:07;;;;;;;18.70;13.70;;;;;;;;;;5033976;28;20553;-72
2023/01/06 05:51:56;;;;;;;18.27;13.20;;;;;;;;;;5036163;28;20505;-72
2023/01/06 05:54:45;;;;;;;19.10;14.80;;;;;;;;;;5035830;28;20459;-72
2023/01/06 05:57:37;;;;;;;17.80;13.13;;;;;;;;;;5032885;28;20943;-72
2023/01/06 06:00:26;;;;;;;18.47;13.77;;;;;;;;;;5031508;28;20490;-72
2023/01/06 06:03:18;;;;;;;18.60;12.90;;;;;;;;;;5035730;28;20447;-72
2023/01/06 06:06:11;;;;;;;17.47;13.43;;;;;;;;;;5034022;28;20954;-72
2023/01/06 06:08:59;;;;;;;20.80;14.20;;;;;;;;;;5035780;28;20503;-72
2023/01/06 06:11:51;;;;;;;17.57;12.93;;;;;;;;;;5036055;28;20471;-72
2023/01/06 06:14:40;;;;;;;19.13;14.23;;;;;;;;;;5035010;28;20463;-72
2023/01/06 06:17:29;;;;;;;16.60;13.73;;;;;;;;;;5032836;28;20478;-72
2023/01/06 06:20:18;;;;;;;19.57;14.67;;;;;;;;;;5032026;28;21130;-72
2023/01/06 06:23:06;;;;;;;20.27;14.80;;;;;;;;;;5035293;28;21015;-73
2023/01/06 06:25:55;;;;;;;19.37;14.17;;;;;;;;;;5019984;28;20889;-72
2023/01/06 06:28:43;;;;;;;19.33;14.10;;;;;;;;;;5021077;28;20855;-71
2023/01/06 06:31:33;;;;;;;16.17;13.43;;;;;;;;;;5027086;28;20487;-72
2023/01/06 06:34:22;;;;;;;17.50;13.53;;;;;;;;;;5029459;28;20463;-72
2023/01/06 06:37:11;;;;;;;19.73;14.20;;;;;;;;;;5011838;28;20483;-72
2023/01/06 06:40:00;;;;;;;19.30;14.87;;;;;;;;;;5016918;28;20454;-72
2023/01/06 06:42:51;;;;;;;19.50;14.40;;;;;;;;;;5016457;28;20963;-72
2023/01/06 06:45:40;;;;;;;19.63;14.37;;;;;;;;;;5011682;28;20470;-72
2023/01/06 06:48:30;;;;;;;20.17;15.20;;;;;;;;;;5009652;28;20490;-72
2023/01/06 06:51:19;;;;;;;18.77;14.77;;;;;;;;;;5010787;28;21180;-72
2023/01/06 06:54:08;;;;;;;19.17;15.03;;;;;;;;;;5012450;28;20504;-71
2023/01/06 06:56:57;;;;;;;20.47;15.50;;;;;;;;;;5013182;28;20540;-72
2023/01/06 06:59:45;;;;;;;19.37;14.80;;;;;;;;;;5017823;28;20455;-72
2023/01/06 07:02:34;;;;;;;20.20;15.60;;;;;;;;;;5020722;28;20490;-72
2023/01/06 07:05:24;;;;;;;20.10;13.80;;;;;;;;;;5014227;28;20508;-73
2023/01/06 07:08:13;;;;;;;17.43;13.93;;;;;;;;;;5015890;28;20561;-72
2023/01/06 07:11:02;;;;;;;17.77;13.90;;;;;;;;;;5012849;28;20541;-72
2023/01/06 07:13:50;;;;;;;16.80;13.47;;;;;;;;;;5019151;28;20488;-72
2023/01/06 07:16:39;;;;;;;17.40;14.47;;;;;;;;;;5013153;28;20466;-72
2023/01/06 07:19:28;;;;;;;18.27;14.57;;;;;;;;;;5010271;28;21020;-72
2023/01/06 07:22:18;;;;;;;16.03;13.43;;;;;;;;;;5030766;28;20532;-72
2023/01/06 07:25:07;;;;;;;19.20;13.20;;;;;;;;;;5008251;28;20810;-72
2023/01/06 07:27:56;;;;;;;17.00;13.77;;;;;;;;;;5022501;28;21031;-72
2023/01/06 07:30:45;;;;;;;16.23;13.13;;;;;;;;;;5012685;28;20482;-72
2023/01/06 07:33:34;;;;;;;15.30;12.97;;;;;;;;;;5015275;28;20977;-72
2023/01/06 07:36:22;;;;;;;16.20;13.17;;;;;;;;;;5021563;28;20508;-72
2023/01/06 07:39:12;;;;;;;15.87;11.90;;;;;;;;;;5017154;28;20525;-72
2023/01/06 07:42:01;;;;;;;15.40;12.70;;;;;;;;;;5018193;28;20483;-73
2023/01/06 07:44:50;;;;;;;13.70;11.40;;;;;;;;;;5019286;28;20501;-72
2023/01/06 07:47:38;;;;;;;12.27;10.97;;;;;;;;;;5014166;28;20529;-72
2023/01/06 07:50:27;;;;;;;14.87;11.37;;;;;;;;;;5027057;28;20472;-72
2023/01/06 07:53:16;;;;;;;14.23;11.37;;;;;;;;;;5030083;28;20544;-72
2023/01/06 07:56:06;;;;;;;14.33;11.63;;;;;;;;;;5028317;28;20466;-72
2023/01/06 07:58:54;;;;;;;13.53;10.70;;;;;;;;;;5036699;28;20583;-72
2023/01/06 08:01:43;;;;;;;12.77;10.90;;;;;;;;;;5019498;28;20487;-72
2023/01/06 08:04:32;;;;;;;12.70;11.23;;;;;;;;;;5022768;28;20896;-73
2023/01/06 08:07:20;;;;;;;12.00;10.53;;;;;;;;;;5013552;28;20479;-72
2023/01/06 08:10:09;;;;;;;12.50;10.70;;;;;;;;;;5024501;28;20483;-72
2023/01/06 08:12:59;;;;;;;12.63;10.23;;;;;;;;;;5017222;28;20463;-72
2023/01/06 08:15:50;;;;;;;14.33;11.70;;;;;;;;;;5017434;28;20482;-72
2023/01/06 08:18:39;;;;;;;11.60;10.37;;;;;;;;;;5012934;28;21493;-72
2023/01/06 08:21:28;;;;;;;12.03;10.73;;;;;;;;;;5014307;28;20490;-72
2023/01/06 08:24:16;;;;;;;11.50;9.53;;;;;;;;;;5023423;28;20463;-72
2023/01/06 08:27:07;;;;;;;12.67;10.10;;;;;;;;;;5016544;28;20523;-72
2023/01/06 08:29:57;;;;;;;10.60;9.50;;;;;;;;;;5021204;28;20813;-73
2023/01/06 08:32:46;;;;;;;11.03;9.30;;;;;;;;;;5012916;28;21551;-73
2023/01/06 08:35:34;;;;;;;10.57;9.57;;;;;;;;;;5014487;28;20450;-72
2023/01/06 08:38:23;;;;;;;11.90;10.37;;;;;;;;;;5010024;28;21181;-73
2023/01/06 08:41:12;;;;;;;10.47;9.40;;;;;;;;;;5011937;28;20483;-72
2023/01/06 08:44:01;;;;;;;12.77;9.20;;;;;;;;;;5018829;28;20546;-72
2023/01/06 08:46:51;;;;;;;10.07;8.80;;;;;;;;;;5021161;28;20559;-73
2023/01/06 08:49:40;;;;;;;11.00;9.43;;;;;;;;;;5022991;28;20483;-72
2023/01/06 08:52:28;;;;;;;11.83;9.33;;;;;;;;;;5012701;28;20486;-72
2023/01/06 08:55:17;;;;;;;12.60;8.40;;;;;;;;;;5002624;28;20460;-72
2023/01/06 08:58:06;;;;;;;10.00;8.77;;;;;;;;;;5015901;28;20684;-72
2023/01/06 09:00:54;;;;;;;9.30;8.40;;;;;;;;;;5007740;28;20483;-72
2023/01/06 09:03:45;;;;;;;9.90;8.50;;;;;;;;;;5019212;28;20602;-72
2023/01/06 09:06:33;;;;;;;8.50;7.70;;;;;;;;;;5014118;28;20448;-72
2023/01/06 09:09:22;;;;;;;11.53;10.20;;;;;;;;;;5023423;28;20503;-73
2023/01/06 09:12:11;;;;;;;8.63;7.80;;;;;;;;;;5013022;28;20570;-72
2023/01/06 09:14:59;;;;;;;9.07;8.20;;;;;;;;;;5023738;28;20997;-73
2023/01/06 09:17:48;;;;;;;9.00;8.20;;;;;;;;;;5025458;28;20487;-72
2023/01/06 09:20:38;;;;;;;8.60;7.80;;;;;;;;;;5026333;28;21267;-73
2023/01/06 09:23:27;;;;;;;9.10;8.20;;;;;;;;;;5016126;28;20556;-73
2023/01/06 09:26:16;;;;;;;8.77;7.87;;;;;;;;;;5012105;28;20578;-73
2023/01/06 09:29:05;;;;;;;8.57;7.87;;;;;;;;;;5017787;28;20494;-73
2023/01/06 09:31:55;;;;;;;9.77;8.93;;;;;;;;;;5020270;28;20479;-72
2023/01/06 09:34:44;;;;;;;8.17;7.37;;;;;;;;;;5022105;28;20547;-73
2023/01/06 09:37:37;;;;;;;8.10;7.47;;;;;;;;;;5017551;28;22151;-73
2023/01/06 09:40:30;;;;;;;8.20;7.40;;;;;;;;;;5027393;28;20485;-73
2023/01/06 09:43:25;;;;;;;7.87;7.10;;;;;;;;;;5024916;28;20464;-72
2023/01/06 09:46:15;;;;;;;7.77;7.07;;;;;;;;;;5005368;28;20471;-73
2023/01/06 09:49:09;;;;;;;8.70;7.43;;;;;;;;;;5003163;28;20493;-73
2023/01/06 09:51:59;;;;;;;7.17;6.47;;;;;;;;;;5022186;28;20609;-78
2023/01/06 09:54:53;;;;;;;7.40;6.70;;;;;;;;;;5021006;28;20470;-78
2023/01/06 09:57:44;;;;;;;7.30;6.67;;;;;;;;;;5022499;28;20479;-78
2023/01/06 10:00:37;;;;;;;8.50;6.60;;;;;;;;;;5022311;28;20730;-77
2023/01/06 10:03:27;;;;;;;7.13;6.53;;;;;;;;;;5022089;28;20463;-75
2023/01/06 10:06:29;;;;;;;7.03;6.43;;;;;;;;;;5021202;28;20459;-78
2023/01/06 10:09:29;;;;;;;5.90;5.37;;;;;;;;;;5019560;28;20482;-72
2023/01/06 10:12:23;;;;;;;6.83;6.23;;;;;;;;;;5013942;28;20916;-72
2023/01/06 10:15:15;;;;;;;6.43;5.83;;;;;;;;;;5010342;28;20452;-73
2023/01/06 10:18:22;;;;;;;6.23;5.60;;;;;;;;;;5003477;28;21322;-72
2023/01/06 10:21:12;;;;;;;6.37;5.77;;;;;;;;;;5021803;28;20555;-72
2023/01/06 10:24:10;;;;;;;6.67;6.07;;;;;;;;;;5017517;28;20455;-73
2023/01/06 10:26:59;;;;;;;6.20;5.70;;;;;;;;;;5022041;28;20472;-73
2023/01/06 10:29:49;;;;;;;6.53;5.93;;;;;;;;;;5023398;28;20471;-73
2023/01/06 10:32:38;;;;;;;5.63;5.23;;;;;;;;;;5022775;28;20617;-73
2023/01/06 10:35:30;;;;;;;6.93;5.90;;;;;;;;;;5026249;28;20937;-73
2023/01/06 10:38:19;;;;;;;6.20;5.60;;;;;;;;;;5020174;28;20617;-73
2023/01/06 10:41:13;;;;;;;6.37;5.80;;;;;;;;;;5020683;28;20478;-73
2023/01/06 10:44:02;;;;;;;6.40;5.80;;;;;;;;;;5025314;28;20470;-73
2023/01/06 10:46:52;;;;;;;6.70;6.10;;;;;;;;;;5028761;28;20482;-72
2023/01/06 10:49:42;;;;;;;6.30;5.80;;;;;;;;;;5027282;28;20849;-74
2023/01/06 10:52:32;;;;;;;6.57;5.93;;;;;;;;;;5028243;28;20467;-73
2023/01/06 10:55:38;;;;;;;7.13;6.43;;;;;;;;;;5022395;28;20554;-73
2023/01/06 10:58:32;;;;;;;6.97;6.37;;;;;;;;;;5026254;28;20580;-73
2023/01/06 11:01:23;;;;;;;6.67;6.17;;;;;;;;;;5030072;28;20466;-73
2023/01/06 11:04:14;;;;;;;6.90;6.30;;;;;;;;;;5025885;28;20819;-73
2023/01/06 11:07:04;;;;;;;6.87;5.87;;;;;;;;;;5024769;28;20524;-73
2023/01/06 11:09:56;;;;;;;6.43;5.93;;;;;;;;;;5022838;28;20490;-72
2023/01/06 11:12:46;;;;;;;4.80;4.40;;;;;;;;;;5029953;28;20495;-72
2023/01/06 11:15:39;;;;;;;4.33;4.03;;;;;;;;;;5035165;28;20447;-73
2023/01/06 11:18:29;;;;;;;3.20;3.00;;;;;;;;;;5033954;28;20495;-73
2023/01/06 11:21:20;;;;;;;3.00;2.70;;;;;;;;;;5024432;28;20476;-73
2023/01/06 11:24:17;;;;;;;2.40;2.20;;;;;;;;;;5036503;28;20463;-73
2023/01/06 11:27:15;;;;;;;2.30;2.10;;;;;;;;;;5025424;28;20474;-74
2023/01/06 11:30:23;;;;;;;2.30;2.20;;;;;;;;;;5041417;28;20476;-73
2023/01/06 11:33:16;;;;;;;2.17;1.90;;;;;;;;;;5042093;28;20648;-73
2023/01/06 11:36:10;;;;;;;3.10;2.07;;;;;;;;;;5045248;28;20450;-73
2023/01/06 11:39:01;;;;;;;3.80;1.90;;;;;;;;;;5042749;28;20489;-74
2023/01/06 11:41:51;;;;;;;1.63;1.50;;;;;;;;;;5032935;28;20476;-73
2023/01/06 11:44:40;;;;;;;1.60;1.30;;;;;;;;;;5041992;28;20511;-73
2023/01/06 11:47:29;;;;;;;1.60;1.40;;;;;;;;;;5034423;28;20981;-73
2023/01/06 11:50:20;;;;;;;1.13;0.80;;;;;;;;;;5013823;28;20484;-73
2023/01/06 11:53:16;;;;;;;1.37;1.20;;;;;;;;;;5023856;28;21014;-73
2023/01/06 11:56:07;;;;;;;1.43;1.00;;;;;;;;;;5020692;28;20537;-73
2023/01/06 11:59:02;;;;;;;2.33;0.83;;;;;;;;;;5036683;28;20467;-73
2023/01/06 12:01:53;;;;;;;1.63;1.00;;;;;;;;;;5034034;28;20497;-73
2023/01/06 12:04:43;;;;;;;1.20;1.10;;;;;;;;;;5027947;28;20513;-73
2023/01/06 12:07:34;;;;;;;2.93;1.20;;;;;;;;;;5031700;28;20466;-73
2023/01/06 12:10:24;;;;;;;3.60;2.60;;;;;;;;;;5035036;28;20460;-73
2023/01/06 12:13:15;;;;;;;1.57;1.13;;;;;;;;;;5037127;28;20838;-73
2023/01/06 12:16:06;;;;;;;2.23;1.10;;;;;;;;;;5035758;28;20459;-73
2023/01/06 12:18:55;;;;;;;2.50;0.90;;;;;;;;;;5031735;28;20908;-73
2023/01/06 12:21:43;;;;;;;2.37;1.10;;;;;;;;;;5034870;28;20487;-73
2023/01/06 12:24:33;;;;;;;4.00;1.20;;;;;;;;;;5038674;28;20478;-73
2023/01/06 12:27:28;;;;;;;1.60;1.00;;;;;;;;;;5042361;28;20474;-73
2023/01/06 12:30:22;;;;;;;4.03;1.50;;;;;;;;;;5044818;28;20466;-73
2023/01/06 12:33:13;;;;;;;2.30;1.03;;;;;;;;;;5040914;28;20451;-73
2023/01/06 12:36:05;;;;;;;2.80;1.20;;;;;;;;;;5043556;28;20652;-73
2023/01/06 12:38:55;;;;;;;5.40;1.10;;;;;;;;;;5050243;28;20917;-73
2023/01/06 12:41:47;;;;;;;3.37;1.20;;;;;;;;;;5049293;28;20485;-73
2023/01/06 12:44:40;;;;;;;3.40;1.33;;;;;;;;;;5052420;28;20459;-73
2023/01/06 12:47:35;;;;;;;2.90;1.20;;;;;;;;;;5051234;28;20471;-73
2023/01/06 12:50:29;;;;;;;4.60;1.57;;;;;;;;;;5045651;28;20463;-73
2023/01/06 12:53:23;;;;;;;1.90;0.83;;;;;;;;;;5039019;28;20479;-74
2023/01/06 12:56:21;;;;;;;3.80;1.20;;;;;;;;;;5028984;28;20439;-74
2023/01/06 12:59:17;;;;;;;1.80;0.93;;;;;;;;;;5017393;28;22123;-73
2023/01/06 13:02:12;;;;;;;3.33;1.17;;;;;;;;;;5020562;28;20541;-73
2023/01/06 13:05:08;;;;;;;2.70;1.20;;;;;;;;;;5025750;28;20455;-73
2023/01/06 13:08:02;;;;;;;3.03;1.70;;;;;;;;;;5028913;28;20859;-73
2023/01/06 13:10:54;;;;;;;4.33;1.47;;;;;;;;;;5021590;28;20544;-73
2023/01/06 13:13:48;;;;;;;3.80;1.37;;;;;;;;;;5026086;28;20819;-73
2023/01/06 13:16:41;;;;;;;2.50;1.33;;;;;;;;;;5046728;28;20463;-73
2023/01/06 13:19:38;;;;;;;2.53;1.50;;;;;;;;;;5034197;28;20606;-73
2023/01/06 13:22:37;;;;;;;4.70;1.90;;;;;;;;;;5021433;28;20552;-73
2023/01/06 13:25:38;;;;;;;2.30;1.23;;;;;;;;;;5013430;28;20459;-73
2023/01/06 13:28:33;;;;;;;3.10;1.43;;;;;;;;;;5018762;28;20466;-73
2023/01/06 13:31:29;;;;;;;4.70;1.60;;;;;;;;;;5015063;28;20544;-73
2023/01/06 13:34:35;;;;;;;2.90;1.30;;;;;;;;;;5009343;28;20477;-73
2023/01/06 13:37:36;;;;;;;3.83;1.53;;;;;;;;;;5015756;28;20475;-73
2023/01/06 13:40:28;;;;;;;3.93;2.37;;;;;;;;;;5016764;28;20483;-73
2023/01/06 13:43:20;;;;;;;4.40;1.47;;;;;;;;;;5022099;28;20483;-74
2023/01/06 13:46:11;;;;;;;4.07;1.30;;;;;;;;;;5018658;28;20463;-73
2023/01/06 13:49:02;;;;;;;1.70;1.20;;;;;;;;;;5025970;28;20452;-73
2023/01/06 13:51:50;;;;;;;4.23;1.30;;;;;;;;;;5036267;28;21449;-77
2023/01/06 13:55:02;;;;;;;3.50;2.00;;;;;;;;;;5024244;28;20467;-74
2023/01/06 13:57:50;;;;;;;5.53;1.27;;;;;;;;;;5030765;28;20474;-73
2023/01/06 14:00:43;;;;;;;3.63;1.20;;;;;;;;;;5028937;28;20603;-73
2023/01/06 14:03:32;;;;;;;4.23;1.60;;;;;;;;;;5034543;28;20447;-73
2023/01/06 14:06:35;;;;;;;6.17;1.50;;;;;;;;;;5040884;28;20446;-73
2023/01/06 14:09:24;;;;;;;4.03;1.57;;;;;;;;;;5041010;28;20457;-73
2023/01/06 14:12:17;;;;;;;2.17;1.70;;;;;;;;;;5039510;28;20472;-73
2023/01/06 14:15:07;;;;;;;2.13;1.40;;;;;;;;;;5046974;28;20778;-73
2023/01/06 14:17:55;;;;;;;2.90;2.00;;;;;;;;;;5040731;28;20490;-73
2023/01/06 14:20:44;;;;;;;4.23;1.80;;;;;;;;;;5040488;28;20471;-73
2023/01/06 14:23:33;;;;;;;2.27;1.50;;;;;;;;;;5037971;28;20520;-73
2023/01/06 14:26:22;;;;;;;4.10;1.30;;;;;;;;;;5032953;28;20468;-73
2023/01/06 14:29:29;;;;;;;3.70;1.40;;;;;;;;;;5037386;28;20450;-73
2023/01/06 14:32:36;;;;;;;3.97;1.50;;;;;;;;;;5043032;28;20847;-73
2023/01/06 14:35:31;;;;;;;4.50;1.90;;;;;;;;;;5040633;28;21009;-73
2023/01/06 14:38:28;;;;;;;4.20;1.50;;;;;;;;;;5033653;28;20478;-73
2023/01/06 14:41:21;;;;;;;4.67;1.80;;;;;;;;;;5039597;28;20479;-74
2023/01/06 14:44:13;;;;;;;5.47;1.53;;;;;;;;;;5039286;28;20456;-73
2023/01/06 14:47:03;;;;;;;3.43;1.50;;;;;;;;;;5045542;28;20470;-72
2023/01/06 14:49:55;;;;;;;5.10;1.60;;;;;;;;;;5041369;28;20470;-73
2023/01/06 14:52:48;;;;;;;3.83;1.60;;;;;;;;;;5042938;28;20487;-73
2023/01/06 14:55:42;;;;;;;5.60;1.70;;;;;;;;;;5034804;28;20568;-73
2023/01/06 14:58:31;;;;;;;4.20;1.17;;;;;;;;;;5038724;28;20476;-73
2023/01/06 15:01:24;;;;;;;4.50;1.63;;;;;;;;;;5022970;28;20483;-73
2023/01/06 15:04:22;;;;;;;4.57;1.50;;;;;;;;;;5034389;28;20451;-72
2023/01/06 15:07:17;;;;;;;1.77;1.03;;;;;;;;;;5031241;28;20505;-73
2023/01/06 15:10:21;;;;;;;4.47;1.83;;;;;;;;;;5029622;28;20506;-73
2023/01/06 15:13:27;;;;;;;5.13;1.37;;;;;;;;;;5029917;28;20565;-73
2023/01/06 15:16:19;;;;;;;3.40;1.43;;;;;;;;;;5024268;28;20455;-73
2023/01/06 15:19:09;;;;;;;2.20;1.30;;;;;;;;;;5030130;28;20467;-77
2023/01/06 15:21:59;;;;;;;3.83;2.23;;;;;;;;;;5026712;28;20861;-73
2023/01/06 15:24:48;;;;;;;5.00;1.40;;;;;;;;;;5027517;28;20505;-73
2023/01/06 15:27:45;;;;;;;6.50;1.50;;;;;;;;;;5020763;28;20490;-73
2023/01/06 15:30:36;;;;;;;2.70;1.30;;;;;;;;;;5026527;28;20478;-73
2023/01/06 15:33:26;;;;;;;5.93;1.20;;;;;;;;;;5026724;28;20478;-73
2023/01/06 15:36:19;;;;;;;4.03;1.40;;;;;;;;;;5033327;28;20535;-73
2023/01/06 15:39:11;;;;;;;3.57;1.70;;;;;;;;;;5029245;28;20470;-73
2023/01/06 15:42:01;;;;;;;4.33;1.43;;;;;;;;;;5031884;28;20476;-73
2023/01/06 15:44:58;;;;;;;2.67;1.40;;;;;;;;;;5030811;28;20558;-73
2023/01/06 15:47:47;;;;;;;3.80;1.30;;;;;;;;;;5031073;28;20999;-72
2023/01/06 15:50:36;;;;;;;3.57;1.67;;;;;;;;;;5030888;28;20470;-73
2023/01/06 15:53:30;;;;;;;4.33;1.43;;;;;;;;;;5031287;28;21381;-73
2023/01/06 15:56:23;;;;;;;3.43;1.77;;;;;;;;;;5020824;28;20647;-73
2023/01/06 15:59:14;;;;;;;5.80;1.60;;;;;;;;;;5020445;28;20455;-73
2023/01/06 16:02:04;;;;;;;2.47;1.57;;;;;;;;;;5020083;28;20474;-73
2023/01/06 16:04:53;;;;;;;2.90;1.60;;;;;;;;;;5027137;28;20461;-73
2023/01/06 16:07:43;;;;;;;4.53;1.50;;;;;;;;;;5033200;28;20477;-73
2023/01/06 16:10:34;;;;;;;2.73;1.50;;;;;;;;;;5024553;28;20482;-73
2023/01/06 16:13:26;;;;;;;3.90;1.47;;;;;;;;;;5027294;28;20497;-74
2023/01/06 16:16:25;;;;;;;4.47;1.93;;;;;;;;;;5037648;28;20447;-79
2023/01/06 16:19:17;;;;;;;6.13;2.10;;;;;;;;;;5034541;28;20537;-78
2023/01/06 16:22:07;;;;;;;4.07;1.50;;;;;;;;;;5040880;28;20846;-78
2023/01/06 16:24:56;;;;;;;3.30;1.50;;;;;;;;;;5040520;28;20469;-79
2023/01/06 16:27:48;;;;;;;4.80;1.70;;;;;;;;;;5036571;28;20991;-78
2023/01/06 16:30:41;;;;;;;5.03;1.70;;;;;;;;;;5037850;28;20616;-78
2023/01/06 16:33:38;;;;;;;5.57;1.37;;;;;;;;;;5039951;28;20513;-78
2023/01/06 16:36:28;;;;;;;2.90;1.60;;;;;;;;;;5034520;28;20455;-73
2023/01/06 16:39:18;;;;;;;3.43;1.50;;;;;;;;;;5031935;28;20452;-75
2023/01/06 16:42:41;;;;;;;5.57;1.87;;;;;;;;;;5038207;28;20943;-76
2023/01/06 16:45:34;;;;;;;4.83;1.90;;;;;;;;;;5029742;28;20554;-78
2023/01/06 16:48:22;;;;;;;4.80;2.03;;;;;;;;;;5031635;28;20896;-76
2023/01/06 16:51:15;;;;;;;2.63;1.93;;;;;;;;;;5032872;28;20496;-77
2023/01/06 16:54:12;;;;;;;6.50;1.70;;;;;;;;;;5037754;28;20820;-76
2023/01/06 16:57:01;;;;;;;3.43;2.27;;;;;;;;;;5035630;28;20483;-76
2023/01/06 16:59:50;;;;;;;4.53;2.00;;;;;;;;;;5041303;28;20835;-76
2023/01/06 17:02:41;;;;;;;5.57;1.77;;;;;;;;;;5033317;28;20524;-77
2023/01/06 17:05:30;;;;;;;4.40;1.80;;;;;;;;;;5039689;28;20490;-76